Time;durP1;ratioP1;P1;durP2;ratioP2;P2;SDS_P1;SDS_P2;PMS_P1;PMS_P2;Temp;Humidity;BMP_temperature;BMP_pressure;BME280_temperature;BME280_humidity;BME280_pressure;Samples;Min_cycle;Max_cycle;Signal;HPM_P1;HPM_P2
2022/10/26 00:00:39;;;;;;;16.40;9.23;;;11.40;99.90;;;;;;4974415;28;20098;-89
2022/10/26 00:03:05;;;;;;;14.73;8.10;;;11.40;99.90;;;;;;4990346;28;20026;-90
2022/10/26 00:05:33;;;;;;;14.27;8.10;;;11.40;99.90;;;;;;5007232;28;20644;-86
2022/10/26 00:07:59;;;;;;;15.07;8.95;;;11.40;99.90;;;;;;4991205;28;20026;-85
2022/10/26 00:10:25;;;;;;;19.70;8.85;;;11.30;99.90;;;;;;4991335;28;20048;-88
2022/10/26 00:12:51;;;;;;;18.10;9.40;;;11.30;99.90;;;;;;5009295;28;20034;-88
2022/10/26 00:15:18;;;;;;;20.92;9.13;;;11.30;99.90;;;;;;5010469;28;20084;-88
2022/10/26 00:17:45;;;;;;;20.42;10.15;;;11.30;99.90;;;;;;4992353;28;20035;-88
2022/10/26 00:20:11;;;;;;;17.33;11.02;;;11.30;99.90;;;;;;4992650;28;20022;-89
2022/10/26 00:22:37;;;;;;;26.00;11.48;;;11.30;99.90;;;;;;5011871;28;20040;-87
2022/10/26 00:25:04;;;;;;;20.38;11.25;;;11.30;99.90;;;;;;5013269;28;20067;-87
2022/10/26 00:27:29;;;;;;;20.58;11.90;;;11.20;99.90;;;;;;5010826;28;20038;-89
2022/10/26 00:29:55;;;;;;;18.40;10.75;;;11.20;99.90;;;;;;4994379;28;20022;-89
2022/10/26 00:32:21;;;;;;;22.05;10.90;;;11.20;99.90;;;;;;5011153;28;20721;-89
2022/10/26 00:34:47;;;;;;;22.40;10.80;;;11.20;99.90;;;;;;4991065;28;20077;-89
2022/10/26 00:37:13;;;;;;;25.25;12.05;;;11.10;99.90;;;;;;5009070;28;20399;-88
2022/10/26 00:39:38;;;;;;;18.02;10.93;;;11.10;99.90;;;;;;4997146;28;20034;-89
2022/10/26 00:42:04;;;;;;;19.38;11.50;;;11.10;99.90;;;;;;5014730;28;20061;-87
2022/10/26 00:44:57;;;;;;;16.92;10.00;;;11.10;99.90;;;;;;4997889;28;20034;-89
2022/10/26 00:47:38;;;;;;;16.42;9.57;;;11.00;99.90;;;;;;5016697;28;20018;-86
2022/10/26 00:50:21;;;;;;;21.63;10.02;;;11.00;99.90;;;;;;5015970;28;20042;-86
2022/10/26 00:52:49;;;;;;;23.65;10.75;;;11.00;99.90;;;;;;5015134;28;20022;-85
2022/10/26 00:55:20;;;;;;;20.30;10.25;;;11.00;99.90;;;;;;5018215;28;20038;-84
2022/10/26 00:57:48;;;;;;;19.92;10.27;;;11.00;99.90;;;;;;5018601;28;20037;-86
2022/10/26 01:00:14;;;;;;;16.83;10.63;;;11.00;99.90;;;;;;5001618;28;20024;-84
2022/10/26 01:02:42;;;;;;;20.27;10.93;;;11.00;99.90;;;;;;5001213;28;20254;-86
2022/10/26 01:05:08;;;;;;;18.27;10.48;;;11.00;99.90;;;;;;5001342;28;20006;-86
2022/10/26 01:07:35;;;;;;;20.48;10.20;;;11.00;99.90;;;;;;4999763;28;20053;-86
2022/10/26 01:10:01;;;;;;;17.40;9.43;;;10.90;99.90;;;;;;5013783;28;20094;-89
2022/10/26 01:12:27;;;;;;;13.77;9.13;;;10.90;99.90;;;;;;5010807;28;20085;-87
2022/10/26 01:14:54;;;;;;;15.80;8.57;;;11.00;99.90;;;;;;4990885;28;20041;-87
2022/10/26 01:17:49;;;;;;;15.05;9.13;;;11.00;99.90;;;;;;5009447;28;20026;-88
2022/10/26 01:20:14;;;;;;;17.83;10.02;;;11.00;99.90;;;;;;5012045;28;20022;-85
2022/10/26 01:22:43;;;;;;;18.17;10.30;;;11.00;99.90;;;;;;5013189;28;20080;-87
2022/10/26 01:25:27;;;;;;;20.00;11.13;;;10.90;99.90;;;;;;5013795;28;20035;-86
2022/10/26 01:27:53;;;;;;;23.07;11.43;;;10.90;99.90;;;;;;5011612;28;20030;-86
2022/10/26 01:30:34;;;;;;;22.95;11.60;;;10.90;99.90;;;;;;5007775;28;20783;-88
2022/10/26 01:33:40;;;;;;;22.25;10.82;;;10.90;99.90;;;;;;5013622;28;20053;-87
2022/10/26 01:36:25;;;;;;;19.90;11.30;;;10.90;99.90;;;;;;5017906;28;20021;-85
2022/10/26 01:38:59;;;;;;;22.63;11.85;;;10.90;99.90;;;;;;5017679;28;20038;-86
2022/10/26 01:41:31;;;;;;;24.55;12.50;;;10.90;99.90;;;;;;5001069;28;20044;-84
2022/10/26 01:44:08;;;;;;;23.23;12.40;;;10.90;99.90;;;;;;5002403;28;20018;-85
2022/10/26 01:46:43;;;;;;;17.77;11.02;;;10.80;99.90;;;;;;5021623;28;20103;-86
2022/10/26 01:49:12;;;;;;;18.17;10.48;;;10.90;99.90;;;;;;5021689;28;20030;-84
2022/10/26 01:51:41;;;;;;;16.58;10.75;;;10.90;99.90;;;;;;5005007;28;20030;-83
2022/10/26 01:54:08;;;;;;;19.13;10.93;;;10.90;99.90;;;;;;5022064;28;20054;-85
2022/10/26 01:56:39;;;;;;;16.88;10.38;;;10.80;99.90;;;;;;5021774;28;20035;-84
2022/10/26 01:59:20;;;;;;;16.98;10.38;;;10.80;99.90;;;;;;5021563;28;20046;-85
2022/10/26 02:01:50;;;;;;;20.63;9.80;;;10.80;99.90;;;;;;5004730;28;20054;-83
2022/10/26 02:04:27;;;;;;;22.67;11.18;;;10.80;99.90;;;;;;4988600;28;20027;-84
2022/10/26 02:07:04;;;;;;;19.90;9.82;;;10.70;99.90;;;;;;5021561;28;20022;-85
2022/10/26 02:10:12;;;;;;;16.60;10.43;;;10.70;99.90;;;;;;5020938;28;20041;-86
2022/10/26 02:12:47;;;;;;;25.02;10.90;;;10.70;99.90;;;;;;5004355;28;20026;-86
2022/10/26 02:15:23;;;;;;;18.10;10.15;;;10.70;99.90;;;;;;5019410;28;20029;-87
2022/10/26 02:17:59;;;;;;;16.98;9.80;;;10.60;99.90;;;;;;5000200;28;20054;-86
2022/10/26 02:20:40;;;;;;;22.38;10.80;;;10.60;99.90;;;;;;5000282;28;20030;-87
2022/10/26 02:23:08;;;;;;;23.52;9.55;;;10.60;99.90;;;;;;4999029;28;20050;-86
2022/10/26 02:25:43;;;;;;;27.17;9.55;;;10.60;99.90;;;;;;5012422;28;20049;-86
2022/10/26 02:28:12;;;;;;;20.58;10.13;;;10.60;99.90;;;;;;5012386;28;20038;-87
2022/10/26 02:30:40;;;;;;;16.50;9.63;;;10.50;99.90;;;;;;5010025;28;20030;-89
2022/10/26 02:33:09;;;;;;;23.33;10.38;;;10.50;99.90;;;;;;5009020;28;20501;-87
2022/10/26 02:35:38;;;;;;;18.35;8.98;;;10.50;99.90;;;;;;4994282;28;20030;-89
2022/10/26 02:38:07;;;;;;;12.43;7.50;;;10.50;99.90;;;;;;4987128;28;20545;-89
2022/10/26 02:40:34;;;;;;;19.10;7.75;;;10.40;99.90;;;;;;5002611;28;20061;-89
2022/10/26 02:43:05;;;;;;;16.63;7.43;;;10.50;99.90;;;;;;5003505;28;20040;-87
2022/10/26 02:45:37;;;;;;;12.68;6.85;;;10.40;99.90;;;;;;4988197;28;20165;-86
2022/10/26 02:48:04;;;;;;;13.73;6.90;;;10.40;99.90;;;;;;4995495;28;20034;-87
2022/10/26 02:50:40;;;;;;;17.15;6.97;;;10.40;99.90;;;;;;5003175;28;20050;-86
2022/10/26 02:53:17;;;;;;;13.30;6.38;;;10.40;99.90;;;;;;5020442;28;20037;-85
2022/10/26 02:55:49;;;;;;;11.65;6.53;;;10.40;99.90;;;;;;5003168;28;20023;-84
2022/10/26 02:58:39;;;;;;;24.55;6.45;;;10.30;99.90;;;;;;5002891;28;20015;-86
2022/10/26 03:01:06;;;;;;;16.08;6.65;;;10.30;99.90;;;;;;5018540;28;20049;-88
2022/10/26 03:03:31;;;;;;;13.13;7.57;;;10.20;99.90;;;;;;5018007;28;20105;-87
2022/10/26 03:05:57;;;;;;;12.50;7.25;;;10.20;99.90;;;;;;5016076;28;20037;-87
2022/10/26 03:08:23;;;;;;;17.88;6.72;;;10.20;99.90;;;;;;4999461;28;20058;-87
2022/10/26 03:10:49;;;;;;;12.63;7.28;;;10.10;99.90;;;;;;4998283;28;20450;-87
2022/10/26 03:13:15;;;;;;;12.40;7.05;;;10.10;99.90;;;;;;5011907;28;20030;-89
2022/10/26 03:15:40;;;;;;;15.35;7.75;;;10.10;99.90;;;;;;5017130;28;20045;-86
2022/10/26 03:18:07;;;;;;;19.30;7.38;;;10.20;99.90;;;;;;5018977;28;20014;-86
2022/10/26 03:20:33;;;;;;;14.80;7.30;;;10.20;99.90;;;;;;5003270;28;20078;-86
2022/10/26 03:22:58;;;;;;;21.65;7.57;;;10.20;99.90;;;;;;5017594;28;20430;-88
2022/10/26 03:25:25;;;;;;;16.38;7.53;;;10.20;99.90;;;;;;4992832;28;20102;-86
2022/10/26 03:27:59;;;;;;;16.67;7.65;;;10.20;99.90;;;;;;4993550;28;20030;-86
2022/10/26 03:30:26;;;;;;;11.18;6.85;;;10.20;99.90;;;;;;5019254;28;20098;-85
2022/10/26 03:32:51;;;;;;;13.63;6.88;;;10.20;99.90;;;;;;5020532;28;20026;-86
2022/10/26 03:35:17;;;;;;;15.43;6.65;;;10.20;99.90;;;;;;5020092;28;20030;-84
2022/10/26 03:37:43;;;;;;;10.88;6.22;;;10.20;99.90;;;;;;4986672;28;20022;-86
2022/10/26 03:40:09;;;;;;;11.32;6.57;;;10.10;99.90;;;;;;5018271;28;20030;-87
2022/10/26 03:42:36;;;;;;;11.07;6.45;;;10.10;99.90;;;;;;5018659;28;20034;-86
2022/10/26 03:45:03;;;;;;;13.60;6.97;;;10.10;99.90;;;;;;5019241;28;20038;-86
2022/10/26 03:47:29;;;;;;;12.98;6.20;;;10.10;99.90;;;;;;4985159;28;20034;-88
2022/10/26 03:49:55;;;;;;;11.25;6.90;;;10.20;99.90;;;;;;4993628;28;20034;-88
2022/10/26 03:52:22;;;;;;;11.93;7.22;;;10.20;99.90;;;;;;4991569;28;20022;-88
2022/10/26 03:54:49;;;;;;;12.02;6.47;;;10.20;99.90;;;;;;4993235;28;20030;-86
2022/10/26 03:57:15;;;;;;;11.55;6.68;;;10.20;99.90;;;;;;5012364;28;20019;-85
2022/10/26 03:59:41;;;;;;;15.48;7.60;;;10.20;99.90;;;;;;5001519;28;20082;-86
2022/10/26 04:02:07;;;;;;;15.85;6.13;;;10.20;99.90;;;;;;5001421;28;20043;-86
2022/10/26 04:04:33;;;;;;;11.43;5.38;;;10.20;99.90;;;;;;5000073;28;20069;-88
2022/10/26 04:06:59;;;;;;;10.18;5.88;;;10.20;99.90;;;;;;5014869;28;20041;-87
2022/10/26 04:09:24;;;;;;;10.50;5.00;;;10.20;99.90;;;;;;5014685;28;20045;-88
2022/10/26 04:11:50;;;;;;;12.80;7.30;;;10.20;99.90;;;;;;5000665;28;20015;-85
2022/10/26 04:14:16;;;;;;;17.52;8.50;;;10.20;99.90;;;;;;4985216;28;20042;-87
2022/10/26 04:16:42;;;;;;;15.05;8.98;;;10.20;99.90;;;;;;5017402;28;20041;-87
2022/10/26 04:19:09;;;;;;;13.48;8.02;;;10.20;99.90;;;;;;5017055;28;20031;-86
2022/10/26 04:21:34;;;;;;;23.48;12.32;;;10.20;99.90;;;;;;4994957;28;20065;-88
2022/10/26 04:24:01;;;;;;;21.85;13.50;;;10.20;99.90;;;;;;4994975;28;20090;-87
2022/10/26 04:26:27;;;;;;;27.95;15.40;;;10.10;99.90;;;;;;5008570;28;20081;-88
2022/10/26 04:28:53;;;;;;;24.17;13.95;;;10.10;99.90;;;;;;4990058;28;20041;-86
2022/10/26 04:31:19;;;;;;;22.92;12.68;;;10.20;99.90;;;;;;4999457;28;20090;-86
2022/10/26 04:33:45;;;;;;;23.27;12.20;;;10.20;99.90;;;;;;5001517;28;20037;-87
2022/10/26 04:36:10;;;;;;;24.02;11.75;;;10.10;99.90;;;;;;5018093;28;20014;-88
2022/10/26 04:38:36;;;;;;;20.95;11.82;;;10.20;99.90;;;;;;5016551;28;20052;-88
2022/10/26 04:41:02;;;;;;;24.77;12.45;;;10.20;99.90;;;;;;5017559;28;20018;-86
2022/10/26 04:43:28;;;;;;;21.63;12.07;;;10.20;99.90;;;;;;5001004;28;20034;-87
2022/10/26 04:45:57;;;;;;;22.73;11.57;;;10.20;99.90;;;;;;5017628;28;20022;-87
2022/10/26 04:48:23;;;;;;;20.65;11.98;;;10.10;99.90;;;;;;5000465;28;20065;-84
2022/10/26 04:50:49;;;;;;;22.38;11.77;;;10.10;99.90;;;;;;5017627;28;20015;-86
2022/10/26 04:53:15;;;;;;;22.30;12.73;;;10.00;99.90;;;;;;4993238;28;20041;-87
2022/10/26 04:55:41;;;;;;;26.27;13.85;;;10.00;99.90;;;;;;4990743;28;20026;-89
2022/10/26 04:58:07;;;;;;;31.27;14.18;;;9.90;99.90;;;;;;4989276;28;20030;-86
2022/10/26 05:00:34;;;;;;;25.60;13.45;;;9.90;99.90;;;;;;4991455;28;20011;-87
2022/10/26 05:03:02;;;;;;;23.65;13.57;;;9.90;99.90;;;;;;4994497;28;20022;-88
2022/10/26 05:05:29;;;;;;;21.52;13.02;;;9.90;99.90;;;;;;4989854;28;20026;-86
2022/10/26 05:07:56;;;;;;;27.77;14.02;;;9.80;99.90;;;;;;5012166;28;20033;-85
2022/10/26 05:10:22;;;;;;;28.25;14.30;;;9.80;99.90;;;;;;5040556;23;20049;-79
2022/10/26 05:12:58;;;;;;;25.13;14.93;;;9.80;99.90;;;;;;5024743;28;20037;-79
2022/10/26 05:15:23;;;;;;;24.17;14.32;;;9.80;99.90;;;;;;5059403;28;20396;-80
2022/10/26 05:17:57;;;;;;;29.42;15.57;;;9.80;99.90;;;;;;5066293;28;20056;-79
2022/10/26 05:20:30;;;;;;;24.63;14.37;;;9.80;99.90;;;;;;5066953;28;20035;-81
2022/10/26 05:22:58;;;;;;;23.48;13.20;;;9.80;99.90;;;;;;5064353;28;20451;-80
2022/10/26 05:25:24;;;;;;;25.70;12.95;;;9.80;99.90;;;;;;5067366;28;20029;-79
2022/10/26 05:27:50;;;;;;;27.60;12.50;;;9.80;99.90;;;;;;5061347;28;20041;-80
2022/10/26 05:30:15;;;;;;;21.83;11.63;;;9.80;99.90;;;;;;5058645;28;20017;-79
2022/10/26 05:32:41;;;;;;;22.80;12.40;;;9.80;99.90;;;;;;5057982;28;20041;-79
2022/10/26 05:35:07;;;;;;;22.05;11.75;;;9.80;99.90;;;;;;5062980;28;20028;-82
2022/10/26 05:37:33;;;;;;;23.05;11.70;;;9.90;99.90;;;;;;5064407;28;20047;-79
2022/10/26 05:39:58;;;;;;;20.30;11.05;;;9.90;99.90;;;;;;5057385;28;20017;-80
2022/10/26 05:42:24;;;;;;;19.20;10.85;;;9.90;99.90;;;;;;5058549;28;20017;-79
2022/10/26 05:44:50;;;;;;;18.83;11.73;;;10.00;99.90;;;;;;5057636;28;20014;-81
2022/10/26 05:47:16;;;;;;;16.95;11.32;;;10.00;99.90;;;;;;5048862;28;20047;-80
2022/10/26 05:49:45;;;;;;;18.13;11.38;;;10.00;99.90;;;;;;5051543;28;20022;-80
2022/10/26 05:52:10;;;;;;;18.65;10.70;;;10.00;99.90;;;;;;5072332;28;20036;-81
2022/10/26 05:54:36;;;;;;;17.67;11.00;;;10.00;99.90;;;;;;5071033;28;20017;-81
2022/10/26 05:57:02;;;;;;;17.75;10.95;;;10.00;99.90;;;;;;5059493;28;20038;-81
2022/10/26 05:59:29;;;;;;;18.45;11.23;;;10.00;99.90;;;;;;5051684;28;20055;-82
2022/10/26 06:02:40;;;;;;;16.08;10.93;;;10.10;99.90;;;;;;5053719;28;20409;-80
2022/10/26 06:05:10;;;;;;;18.02;10.45;;;10.10;99.90;;;;;;5045842;28;20552;-80
2022/10/26 06:07:36;;;;;;;18.27;10.48;;;10.10;99.90;;;;;;5050764;28;20028;-79
2022/10/26 06:10:03;;;;;;;16.48;10.52;;;10.20;99.90;;;;;;5050052;28;20025;-80
2022/10/26 06:12:29;;;;;;;18.25;10.68;;;10.20;99.90;;;;;;5050750;28;20066;-81
2022/10/26 06:14:56;;;;;;;15.73;10.52;;;10.30;99.90;;;;;;5049743;28;20055;-79
2022/10/26 06:17:35;;;;;;;15.63;10.02;;;10.30;99.90;;;;;;5051743;28;20534;-79
2022/10/26 06:20:10;;;;;;;16.08;9.88;;;10.30;99.90;;;;;;5047774;28;20037;-82
2022/10/26 06:22:43;;;;;;;18.27;10.30;;;10.40;99.90;;;;;;5049544;28;20034;-80
2022/10/26 06:25:13;;;;;;;17.70;10.10;;;10.40;99.90;;;;;;5044669;28;20044;-79
2022/10/26 06:27:51;;;;;;;17.95;9.93;;;10.40;99.90;;;;;;5053799;28;20025;-81
2022/10/26 06:30:19;;;;;;;16.40;10.07;;;10.40;99.90;;;;;;5042269;28;20067;-81
2022/10/26 06:32:45;;;;;;;17.30;12.07;;;10.40;99.90;;;;;;5042551;28;20029;-80
2022/10/26 06:35:14;;;;;;;16.17;10.23;;;10.50;99.90;;;;;;5041993;28;20025;-81
2022/10/26 06:37:44;;;;;;;24.48;11.18;;;10.50;99.90;;;;;;5042980;28;20029;-81
2022/10/26 06:40:15;;;;;;;15.63;10.05;;;10.60;99.90;;;;;;5044375;28;20052;-81
2022/10/26 06:42:42;;;;;;;19.35;10.40;;;10.60;99.90;;;;;;5047740;28;20036;-80
2022/10/26 06:45:15;;;;;;;16.00;9.90;;;10.70;99.90;;;;;;5045983;28;20492;-78
2022/10/26 06:48:02;;;;;;;19.73;10.68;;;10.80;99.90;;;;;;5048099;28;20048;-79
2022/10/26 06:50:36;;;;;;;15.90;9.90;;;10.80;99.90;;;;;;5041887;28;20030;-80
2022/10/26 06:53:25;;;;;;;15.47;10.00;;;10.90;99.90;;;;;;5039706;28;20036;-81
2022/10/26 06:55:51;;;;;;;16.95;10.38;;;10.90;99.90;;;;;;5039651;28;20034;-79
2022/10/26 06:58:19;;;;;;;16.25;9.80;;;10.90;99.90;;;;;;5039956;28;20055;-80
2022/10/26 07:00:48;;;;;;;17.08;10.13;;;11.00;99.90;;;;;;5041889;28;20033;-81
2022/10/26 07:03:15;;;;;;;18.23;11.20;;;11.00;99.90;;;;;;5038584;28;20378;-80
2022/10/26 07:05:41;;;;;;;22.50;11.35;;;11.00;99.90;;;;;;5040534;28;20397;-79
2022/10/26 07:08:07;;;;;;;19.85;12.30;;;11.00;99.90;;;;;;5040689;28;20022;-80
2022/10/26 07:10:37;;;;;;;19.98;12.50;;;10.90;99.90;;;;;;5034287;28;20036;-80
2022/10/26 07:13:07;;;;;;;25.50;12.90;;;11.00;99.90;;;;;;5051720;28;20102;-80
2022/10/26 07:15:34;;;;;;;21.65;13.05;;;11.00;99.90;;;;;;5058731;28;20045;-80
2022/10/26 07:18:00;;;;;;;27.05;13.27;;;11.10;99.90;;;;;;5065650;28;20029;-78
2022/10/26 07:20:25;;;;;;;27.38;14.10;;;11.20;99.90;;;;;;5065582;28;20041;-79
2022/10/26 07:22:52;;;;;;;24.88;12.98;;;11.30;99.90;;;;;;5066807;28;20051;-78
2022/10/26 07:25:18;;;;;;;31.40;15.05;;;11.40;99.90;;;;;;5065944;28;20075;-80
2022/10/26 07:27:44;;;;;;;38.13;16.58;;;11.50;99.90;;;;;;5061619;28;20362;-79
2022/10/26 07:30:10;;;;;;;28.27;15.05;;;11.50;99.90;;;;;;5062427;28;20104;-81
2022/10/26 07:32:35;;;;;;;37.08;15.63;;;11.50;99.90;;;;;;5059318;28;20594;-81
2022/10/26 07:35:01;;;;;;;29.95;15.27;;;11.60;99.90;;;;;;5058043;28;20112;-82
2022/10/26 07:37:27;;;;;;;36.30;17.05;;;11.70;99.90;;;;;;5058856;28;20051;-80
2022/10/26 07:39:53;;;;;;;38.63;17.38;;;11.70;99.90;;;;;;5045797;28;20075;-81
2022/10/26 07:42:19;;;;;;;43.88;19.15;;;11.80;99.90;;;;;;5048408;28;20072;-83
2022/10/26 07:44:44;;;;;;;42.72;18.35;;;11.80;99.90;;;;;;5046515;28;20473;-79
2022/10/26 07:47:10;;;;;;;47.40;18.42;;;11.80;99.90;;;;;;5055797;28;20021;-81
2022/10/26 07:49:36;;;;;;;50.90;20.33;;;11.70;99.90;;;;;;5045939;28;20041;-82
2022/10/26 07:52:02;;;;;;;55.25;20.83;;;11.70;99.90;;;;;;5046191;28;20064;-79
2022/10/26 07:54:28;;;;;;;58.83;21.83;;;11.70;99.90;;;;;;5049209;28;20059;-80
2022/10/26 07:56:53;;;;;;;52.90;19.98;;;11.70;99.90;;;;;;5050125;28;20024;-83
2022/10/26 07:59:19;;;;;;;65.63;22.55;;;11.80;99.90;;;;;;5047393;28;20029;-81
2022/10/26 08:01:45;;;;;;;65.57;22.38;;;11.80;99.90;;;;;;5046608;28;20053;-81
2022/10/26 08:04:11;;;;;;;63.92;22.35;;;11.90;99.90;;;;;;5045286;28;20041;-79
2022/10/26 08:06:37;;;;;;;64.47;23.70;;;12.00;99.90;;;;;;5050614;28;20025;-81
2022/10/26 08:09:03;;;;;;;67.45;22.92;;;12.10;99.90;;;;;;5046874;28;20033;-79
2022/10/26 08:11:29;;;;;;;75.28;25.83;;;12.10;99.90;;;;;;5045664;28;20029;-78
2022/10/26 08:13:55;;;;;;;78.78;25.25;;;12.20;99.90;;;;;;5047232;28;20018;-80
2022/10/26 08:16:21;;;;;;;77.57;25.15;;;12.30;99.90;;;;;;5048322;28;20056;-80
2022/10/26 08:18:48;;;;;;;72.45;26.88;;;12.40;99.90;;;;;;5049617;28;20055;-80
2022/10/26 08:21:14;;;;;;;71.88;25.67;;;12.40;99.90;;;;;;5048682;28;20029;-81
2022/10/26 08:23:40;;;;;;;80.55;26.77;;;12.50;99.90;;;;;;5049450;28;20021;-80
2022/10/26 08:26:07;;;;;;;83.35;29.92;;;12.50;99.90;;;;;;5049467;28;20022;-80
2022/10/26 08:28:33;;;;;;;80.10;30.02;;;12.30;99.90;;;;;;5049026;28;20582;-80
2022/10/26 08:30:59;;;;;;;91.13;31.17;;;12.30;99.90;;;;;;5049875;28;20024;-81
2022/10/26 08:33:25;;;;;;;86.13;30.23;;;12.20;99.90;;;;;;5049394;28;20025;-80
2022/10/26 08:35:57;;;;;;;94.68;32.63;;;12.20;99.90;;;;;;5048343;28;20093;-78
2022/10/26 08:38:23;;;;;;;101.40;34.47;;;12.10;99.90;;;;;;5057719;28;20036;-78
2022/10/26 08:40:50;;;;;;;89.43;32.97;;;12.10;99.90;;;;;;5050796;28;20021;-79
2022/10/26 08:43:48;;;;;;;90.20;33.45;;;12.10;99.90;;;;;;5051688;28;20073;-80
2022/10/26 08:46:20;;;;;;;82.97;31.90;;;12.20;99.90;;;;;;5038653;28;20044;-80
2022/10/26 08:49:03;;;;;;;80.53;31.50;;;12.30;99.90;;;;;;5038603;28;20067;-81
2022/10/26 08:51:36;;;;;;;83.22;29.10;;;12.20;99.90;;;;;;5039384;28;20041;-83
2022/10/26 08:54:31;;;;;;;82.68;29.33;;;12.30;99.90;;;;;;5036552;28;20037;-82
2022/10/26 08:57:00;;;;;;;73.00;28.50;;;12.40;99.90;;;;;;5035614;28;20036;-81
2022/10/26 08:59:35;;;;;;;79.68;29.63;;;12.50;99.90;;;;;;5039154;28;20029;-81
2022/10/26 09:02:01;;;;;;;75.22;30.00;;;12.50;99.90;;;;;;5044716;28;20109;-81
2022/10/26 09:04:30;;;;;;;72.53;28.63;;;12.50;99.90;;;;;;5045350;28;20049;-80
2022/10/26 09:07:10;;;;;;;66.50;26.23;;;12.50;99.90;;;;;;5046358;28;20121;-81
2022/10/26 09:10:07;;;;;;;63.00;26.00;;;12.50;99.90;;;;;;5047646;28;20040;-80
2022/10/26 09:12:33;;;;;;;68.90;26.10;;;12.60;99.90;;;;;;5048018;28;20619;-80
2022/10/26 09:15:08;;;;;;;71.40;27.92;;;12.60;99.90;;;;;;5048222;28;20045;-81
2022/10/26 09:18:01;;;;;;;66.63;27.58;;;12.60;99.90;;;;;;5046520;28;20120;-81
2022/10/26 09:20:45;;;;;;;65.03;26.45;;;12.60;99.90;;;;;;5052526;28;20041;-81
2022/10/26 09:23:43;;;;;;;72.15;27.15;;;12.80;99.90;;;;;;5058985;28;20046;-80
2022/10/26 09:26:17;;;;;;;63.60;24.60;;;13.00;99.90;;;;;;5047663;28;20049;-82
2022/10/26 09:28:47;;;;;;;72.65;27.67;;;13.10;99.90;;;;;;5051897;28;20025;-81
2022/10/26 09:31:15;;;;;;;62.10;25.17;;;13.20;99.90;;;;;;5054823;28;20021;-79
2022/10/26 09:33:41;;;;;;;70.47;27.55;;;13.20;99.90;;;;;;5066198;28;20111;-83
2022/10/26 09:36:16;;;;;;;71.10;28.40;;;13.30;99.90;;;;;;5065999;28;20021;-81
2022/10/26 09:39:16;;;;;;;73.55;28.60;;;13.40;99.90;;;;;;5064401;28;20037;-81
2022/10/26 09:42:04;;;;;;;85.82;32.08;;;13.20;99.90;;;;;;5063403;28;20086;-82
2022/10/26 09:44:35;;;;;;;84.05;32.80;;;13.30;99.90;;;;;;5064568;28;20085;-82
2022/10/26 09:47:41;;;;;;;72.85;28.75;;;13.40;99.90;;;;;;5060537;28;20543;-82
2022/10/26 09:50:12;;;;;;;77.30;28.77;;;13.40;99.90;;;;;;5058837;28;20037;-80
2022/10/26 09:52:38;;;;;;;72.90;27.77;;;13.50;99.90;;;;;;5060489;28;20064;-82
2022/10/26 09:55:05;;;;;;;75.75;29.42;;;13.50;99.90;;;;;;5058791;28;20032;-81
2022/10/26 09:57:31;;;;;;;75.30;29.83;;;13.50;99.90;;;;;;5061103;28;20029;-80
2022/10/26 09:59:57;;;;;;;76.97;31.83;;;13.50;99.90;;;;;;5063987;28;20088;-81
2022/10/26 10:02:43;;;;;;;80.00;31.25;;;13.40;99.90;;;;;;5065097;28;20044;-79
2022/10/26 10:05:29;;;;;;;73.57;29.02;;;13.50;99.90;;;;;;5059450;28;20167;-79
2022/10/26 10:08:25;;;;;;;78.25;29.73;;;13.40;99.90;;;;;;5060830;28;20037;-80
2022/10/26 10:11:07;;;;;;;89.47;31.35;;;13.30;99.90;;;;;;5066467;28;20647;-79
2022/10/26 10:13:36;;;;;;;92.90;34.83;;;13.30;99.90;;;;;;5065147;28;20029;-79
2022/10/26 10:16:35;;;;;;;90.63;32.97;;;13.30;99.90;;;;;;5064436;28;20504;-81
2022/10/26 10:19:01;;;;;;;86.53;33.97;;;13.20;99.90;;;;;;5040803;28;20052;-80
2022/10/26 10:21:44;;;;;;;84.35;33.25;;;13.30;99.90;;;;;;5063178;28;20060;-80
2022/10/26 10:24:23;;;;;;;89.05;33.35;;;13.30;99.90;;;;;;5060889;28;20035;-80
2022/10/26 10:27:16;;;;;;;82.55;33.60;;;13.40;99.90;;;;;;5041816;28;20083;-80
2022/10/26 10:29:44;;;;;;;84.13;35.03;;;13.50;99.90;;;;;;5038015;28;20120;-79
2022/10/26 10:32:26;;;;;;;78.88;33.72;;;13.50;99.90;;;;;;5042306;28;20176;-78
2022/10/26 10:34:55;;;;;;;83.82;34.58;;;13.60;99.90;;;;;;5041533;28;20033;-79
2022/10/26 10:37:45;;;;;;;85.70;34.58;;;13.60;99.90;;;;;;5039758;28;20029;-79
2022/10/26 10:40:22;;;;;;;79.25;33.47;;;13.70;99.90;;;;;;5038684;28;20025;-79
2022/10/26 10:42:49;;;;;;;88.70;37.03;;;13.80;99.90;;;;;;5039296;28;20042;-79
2022/10/26 10:45:24;;;;;;;99.22;38.17;;;13.60;99.90;;;;;;5044461;28;20021;-77
2022/10/26 10:48:13;;;;;;;98.45;39.60;;;13.50;99.90;;;;;;5042958;28;20026;-79
2022/10/26 10:50:59;;;;;;;103.93;39.83;;;13.40;99.90;;;;;;5041627;28;20036;-82
2022/10/26 10:53:58;;;;;;;86.28;38.20;;;13.40;99.90;;;;;;5056214;28;20025;-78
2022/10/26 10:56:47;;;;;;;93.10;38.22;;;13.50;99.90;;;;;;5057719;28;20021;-80
2022/10/26 10:59:32;;;;;;;109.90;42.35;;;13.70;99.90;;;;;;5041385;28;20034;-80
2022/10/26 11:02:35;;;;;;;97.15;37.50;;;13.60;99.90;;;;;;5022531;28;20409;-80
2022/10/26 11:05:19;;;;;;;100.30;38.42;;;13.70;99.90;;;;;;5040430;28;20029;-81
2022/10/26 11:07:54;;;;;;;92.45;39.08;;;13.80;99.90;;;;;;5041085;28;20026;-81
2022/10/26 11:10:26;;;;;;;80.70;34.50;;;13.90;99.90;;;;;;5039345;28;20076;-81
2022/10/26 11:13:12;;;;;;;70.80;32.63;;;13.90;99.90;;;;;;5040424;28;20077;-80
2022/10/26 11:15:40;;;;;;;84.05;33.47;;;14.00;99.90;;;;;;5048573;28;20033;-81
2022/10/26 11:18:38;;;;;;;72.13;30.38;;;14.10;99.90;;;;;;5059983;28;20086;-84
2022/10/26 11:21:19;;;;;;;73.25;30.20;;;14.20;99.90;;;;;;5062846;28;20040;-80
2022/10/26 11:24:00;;;;;;;77.80;32.33;;;14.30;99.90;;;;;;5051179;28;20433;-79
2022/10/26 11:26:39;;;;;;;62.95;30.88;;;14.30;99.90;;;;;;5047503;28;20025;-79
2022/10/26 11:29:15;;;;;;;66.93;31.40;;;14.30;99.90;;;;;;5043299;28;20069;-79
2022/10/26 11:31:49;;;;;;;73.75;31.88;;;14.30;99.90;;;;;;5041154;28;20033;-82
2022/10/26 11:34:35;;;;;;;80.65;33.53;;;14.40;99.90;;;;;;5041651;28;20030;-80
2022/10/26 11:37:13;;;;;;;79.00;34.08;;;14.50;99.90;;;;;;5039001;28;20056;-81
2022/10/26 11:40:00;;;;;;;70.05;33.78;;;14.50;99.90;;;;;;5040924;28;20043;-81
2022/10/26 11:42:40;;;;;;;69.28;32.53;;;14.50;99.90;;;;;;5040759;28;20092;-80
2022/10/26 11:45:21;;;;;;;59.97;27.50;;;14.50;99.90;;;;;;5041221;28;20060;-80
2022/10/26 11:48:01;;;;;;;57.88;26.75;;;14.50;99.90;;;;;;5039867;28;20030;-80
2022/10/26 11:50:41;;;;;;;48.75;24.17;;;14.70;99.90;;;;;;5039449;28;20033;-80
2022/10/26 11:53:38;;;;;;;49.47;24.85;;;14.80;99.90;;;;;;5058743;28;20038;-79
2022/10/26 11:56:12;;;;;;;51.80;25.20;;;14.90;99.90;;;;;;5039392;28;20045;-81
2022/10/26 11:58:38;;;;;;;46.75;23.85;;;15.00;99.90;;;;;;5048217;28;20408;-81
2022/10/26 12:01:12;;;;;;;46.65;23.25;;;15.20;99.90;;;;;;5049233;28;20036;-82
2022/10/26 12:03:45;;;;;;;48.65;23.23;;;15.20;99.90;;;;;;5047600;28;20036;-82
2022/10/26 12:06:16;;;;;;;47.33;23.35;;;15.30;99.90;;;;;;5050078;28;20095;-81
2022/10/26 12:09:00;;;;;;;50.78;24.90;;;15.40;99.90;;;;;;5058754;28;20021;-81
2022/10/26 12:11:44;;;;;;;55.28;24.80;;;15.30;99.90;;;;;;5053441;28;20048;-81
2022/10/26 12:14:25;;;;;;;48.03;23.65;;;15.30;99.90;;;;;;5049430;28;20032;-80
2022/10/26 12:17:14;;;;;;;54.45;25.73;;;15.30;99.90;;;;;;5047345;28;20083;-82
2022/10/26 12:20:05;;;;;;;56.38;25.83;;;15.30;99.90;;;;;;5057408;28;20029;-84
2022/10/26 12:22:38;;;;;;;54.97;25.92;;;15.20;99.90;;;;;;5068186;28;20119;-83
2022/10/26 12:25:13;;;;;;;57.55;26.38;;;15.20;99.90;;;;;;5047570;28;20061;-83
2022/10/26 12:27:39;;;;;;;;;;;15.10;99.90;;;;;;5050053;28;20029;-85
2022/10/26 12:30:22;;;;;;;54.38;25.02;;;15.10;99.90;;;;;;5048727;28;20281;-79
2022/10/26 12:32:50;;;;;;;52.50;24.27;;;15.20;99.90;;;;;;5051666;28;20032;-81
2022/10/26 12:35:30;;;;;;;54.17;25.30;;;15.20;99.90;;;;;;5050694;28;20100;-83
2022/10/26 12:37:56;;;;;;;55.92;24.58;;;15.30;99.90;;;;;;5048049;28;20028;-83
2022/10/26 12:40:33;;;;;;;54.38;23.27;;;15.30;99.90;;;;;;5066161;28;20024;-80
2022/10/26 12:43:14;;;;;;;51.08;23.88;;;15.30;99.90;;;;;;5072278;28;20041;-81
2022/10/26 12:45:42;;;;;;;51.70;24.52;;;15.50;99.90;;;;;;5069825;28;20026;-82
2022/10/26 12:48:37;;;;;;;45.28;22.90;;;15.50;99.90;;;;;;5075668;28;20092;-83
2022/10/26 12:51:21;;;;;;;48.58;23.48;;;15.50;99.90;;;;;;5062984;28;20025;-82
2022/10/26 12:53:56;;;;;;;53.63;24.08;;;15.50;99.90;;;;;;5061702;28;20034;-80
2022/10/26 12:56:55;;;;;;;52.63;24.48;;;15.60;99.90;;;;;;5060912;28;20043;-82